sensor_id;sensor_type;location;lat;lon;timestamp;pressure;altitude;pressure_sealevel;temperature;humidity
4830;BME280;2429;52.586;14.322;2023-12-20T00:02:50;100844.53;;;5.24;100.00
4830;BME280;2429;52.586;14.322;2023-12-20T00:07:53;100842.91;;;5.21;100.00
4830;BME280;2429;52.586;14.322;2023-12-20T00:12:57;100841.81;;;5.28;100.00
4830;BME280;2429;52.586;14.322;2023-12-20T00:18:02;100835.00;;;5.24;100.00
4830;BME280;2429;52.586;14.322;2023-12-20T00:23:06;100829.44;;;5.37;100.00
4830;BME280;2429;52.586;14.322;2023-12-20T00:28:10;100828.00;;;5.26;100.00
4830;BME280;2429;52.586;14.322;2023-12-20T00:33:15;100823.78;;;5.22;100.00
4830;BME280;2429;52.586;14.322;2023-12-20T00:38:18;100823.75;;;5.24;100.00
4830;BME280;2429;52.586;14.322;2023-12-20T00:43:22;100827.97;;;5.28;100.00
4830;BME280;2429;52.586;14.322;2023-12-20T00:48:27;100821.00;;;5.30;100.00
4830;BME280;2429;52.586;14.322;2023-12-20T00:53:32;100802.06;;;5.25;100.00
4830;BME280;2429;52.586;14.322;2023-12-20T00:58:36;100804.53;;;5.29;100.00
4830;BME280;2429;52.586;14.322;2023-12-20T01:03:40;100805.41;;;5.30;100.00
4830;BME280;2429;52.586;14.322;2023-12-20T01:08:44;100811.63;;;5.24;100.00
4830;BME280;2429;52.586;14.322;2023-12-20T01:13:48;100800.00;;;5.36;100.00
4830;BME280;2429;52.586;14.322;2023-12-20T01:18:53;100797.66;;;5.28;100.00
4830;BME280;2429;52.586;14.322;2023-12-20T01:23:56;100792.31;;;5.33;100.00
4830;BME280;2429;52.586;14.322;2023-12-20T01:29:00;100794.91;;;5.33;100.00
4830;BME280;2429;52.586;14.322;2023-12-20T01:34:05;100789.63;;;5.36;100.00
4830;BME280;2429;52.586;14.322;2023-12-20T01:39:09;100782.59;;;5.38;100.00
4830;BME280;2429;52.586;14.322;2023-12-20T01:44:26;100776.66;;;5.35;100.00
4830;BME280;2429;52.586;14.322;2023-12-20T01:49:31;100768.88;;;5.35;100.00
4830;BME280;2429;52.586;14.322;2023-12-20T01:54:35;100770.00;;;5.26;100.00
4830;BME280;2429;52.586;14.322;2023-12-20T01:59:39;100773.34;;;5.29;100.00
4830;BME280;2429;52.586;14.322;2023-12-20T02:04:44;100766.28;;;5.35;100.00
4830;BME280;2429;52.586;14.322;2023-12-20T02:09:50;100756.88;;;5.30;100.00
4830;BME280;2429;52.586;14.322;2023-12-20T02:14:53;100770.69;;;5.31;100.00
4830;BME280;2429;52.586;14.322;2023-12-20T02:19:58;100765.69;;;5.25;100.00
4830;BME280;2429;52.586;14.322;2023-12-20T02:25:04;100778.78;;;5.22;100.00
4830;BME280;2429;52.586;14.322;2023-12-20T02:30:10;100766.38;;;5.32;100.00
4830;BME280;2429;52.586;14.322;2023-12-20T02:35:13;100763.94;;;5.25;100.00
4830;BME280;2429;52.586;14.322;2023-12-20T02:40:18;100765.84;;;5.20;100.00
4830;BME280;2429;52.586;14.322;2023-12-20T02:45:22;100763.06;;;5.26;100.00
4830;BME280;2429;52.586;14.322;2023-12-20T02:50:26;100758.84;;;5.22;100.00
4830;BME280;2429;52.586;14.322;2023-12-20T02:55:30;100763.94;;;5.27;100.00
4830;BME280;2429;52.586;14.322;2023-12-20T03:00:34;100768.91;;;5.33;100.00
4830;BME280;2429;52.586;14.322;2023-12-20T03:05:37;100775.94;;;5.29;100.00
4830;BME280;2429;52.586;14.322;2023-12-20T03:10:42;100766.28;;;5.35;100.00
4830;BME280;2429;52.586;14.322;2023-12-20T03:15:46;100775.34;;;5.21;100.00
4830;BME280;2429;52.586;14.322;2023-12-20T03:20:50;100771.09;;;5.19;100.00
4830;BME280;2429;52.586;14.322;2023-12-20T03:25:55;100765.81;;;5.22;100.00
4830;BME280;2429;52.586;14.322;2023-12-20T03:30:58;100772.66;;;5.24;100.00
4830;BME280;2429;52.586;14.322;2023-12-20T03:36:02;100775.16;;;5.27;100.00
4830;BME280;2429;52.586;14.322;2023-12-20T03:41:07;100776.47;;;5.12;100.00
4830;BME280;2429;52.586;14.322;2023-12-20T03:46:10;100782.50;;;5.13;100.00
4830;BME280;2429;52.586;14.322;2023-12-20T03:51:14;100795.47;;;5.15;100.00
4830;BME280;2429;52.586;14.322;2023-12-20T03:56:19;100796.28;;;5.17;100.00
4830;BME280;2429;52.586;14.322;2023-12-20T04:01:22;100793.84;;;5.10;100.00
4830;BME280;2429;52.586;14.322;2023-12-20T04:06:26;100788.59;;;5.14;100.00
4830;BME280;2429;52.586;14.322;2023-12-20T04:11:31;100777.31;;;5.13;100.00
4830;BME280;2429;52.586;14.322;2023-12-20T04:16:35;100770.19;;;4.91;100.00
4830;BME280;2429;52.586;14.322;2023-12-20T04:21:38;100759.63;;;4.98;100.00
4830;BME280;2429;52.586;14.322;2023-12-20T04:26:44;100773.78;;;4.87;100.00
4830;BME280;2429;52.586;14.322;2023-12-20T04:31:47;100767.84;;;4.84;100.00
4830;BME280;2429;52.586;14.322;2023-12-20T04:36:52;100771.38;;;4.81;100.00
4830;BME280;2429;52.586;14.322;2023-12-20T04:41:57;100773.06;;;4.82;100.00
4830;BME280;2429;52.586;14.322;2023-12-20T04:47:01;100762.78;;;4.77;100.00
4830;BME280;2429;52.586;14.322;2023-12-20T04:52:05;100760.00;;;4.85;100.00
4830;BME280;2429;52.586;14.322;2023-12-20T04:57:10;100752.56;;;4.73;100.00
4830;BME280;2429;52.586;14.322;2023-12-20T05:02:14;100737.16;;;4.67;100.00
4830;BME280;2429;52.586;14.322;2023-12-20T05:07:18;100733.88;;;4.62;100.00
4830;BME280;2429;52.586;14.322;2023-12-20T05:12:23;100747.22;;;4.48;100.00
4830;BME280;2429;52.586;14.322;2023-12-20T05:17:26;100737.66;;;4.50;100.00
4830;BME280;2429;52.586;14.322;2023-12-20T05:22:30;100744.06;;;4.38;100.00
4830;BME280;2429;52.586;14.322;2023-12-20T05:27:35;100739.84;;;4.34;100.00
4830;BME280;2429;52.586;14.322;2023-12-20T05:32:39;100739.88;;;4.32;100.00
4830;BME280;2429;52.586;14.322;2023-12-20T05:37:42;100748.94;;;4.17;100.00
4830;BME280;2429;52.586;14.322;2023-12-20T05:42:48;100747.47;;;4.07;100.00
4830;BME280;2429;52.586;14.322;2023-12-20T05:47:51;100760.72;;;3.96;100.00
4830;BME280;2429;52.586;14.322;2023-12-20T05:52:55;100763.13;;;4.04;100.00
4830;BME280;2429;52.586;14.322;2023-12-20T05:57:59;100763.16;;;4.02;100.00
4830;BME280;2429;52.586;14.322;2023-12-20T06:03:04;100768.19;;;4.09;100.00
4830;BME280;2429;52.586;14.322;2023-12-20T06:08:07;100757.69;;;4.13;100.00
4830;BME280;2429;52.586;14.322;2023-12-20T06:13:12;100739.53;;;4.13;100.00
4830;BME280;2429;52.586;14.322;2023-12-20T06:18:16;100752.00;;;4.00;100.00
4830;BME280;2429;52.586;14.322;2023-12-20T06:23:20;100736.28;;;4.06;100.00
4830;BME280;2429;52.586;14.322;2023-12-20T06:28:25;100734.06;;;3.91;100.00
4830;BME280;2429;52.586;14.322;2023-12-20T06:33:28;100724.84;;;3.81;100.00
4830;BME280;2429;52.586;14.322;2023-12-20T06:38:33;100732.59;;;3.82;100.00
4830;BME280;2429;52.586;14.322;2023-12-20T06:43:38;100725.38;;;3.94;100.00
4830;BME280;2429;52.586;14.322;2023-12-20T06:48:51;100730.66;;;3.89;100.00
4830;BME280;2429;52.586;14.322;2023-12-20T06:53:54;100741.00;;;3.91;100.00
4830;BME280;2429;52.586;14.322;2023-12-20T06:58:59;100743.47;;;3.95;100.00
4830;BME280;2429;52.586;14.322;2023-12-20T07:04:03;100754.72;;;3.96;100.00
4830;BME280;2429;52.586;14.322;2023-12-20T07:09:07;100753.50;;;4.09;100.00
4830;BME280;2429;52.586;14.322;2023-12-20T07:14:11;100746.59;;;4.08;100.00
4830;BME280;2429;52.586;14.322;2023-12-20T07:19:15;100739.66;;;4.09;100.00
4830;BME280;2429;52.586;14.322;2023-12-20T07:24:19;100742.53;;;3.98;100.00
4830;BME280;2429;52.586;14.322;2023-12-20T07:29:24;100748.44;;;4.03;100.00
4830;BME280;2429;52.586;14.322;2023-12-20T07:34:27;100735.41;;;4.06;100.00
4830;BME280;2429;52.586;14.322;2023-12-20T07:39:31;100735.34;;;4.09;100.00
4830;BME280;2429;52.586;14.322;2023-12-20T07:44:36;100730.75;;;4.19;100.00
4830;BME280;2429;52.586;14.322;2023-12-20T07:49:39;100724.28;;;4.34;100.00
4830;BME280;2429;52.586;14.322;2023-12-20T07:54:43;100739.38;;;4.49;100.00
4830;BME280;2429;52.586;14.322;2023-12-20T07:59:48;100739.25;;;4.55;100.00
4830;BME280;2429;52.586;14.322;2023-12-20T08:04:51;100741.41;;;4.39;100.00
4830;BME280;2429;52.586;14.322;2023-12-20T08:09:55;100732.97;;;4.31;100.00
4830;BME280;2429;52.586;14.322;2023-12-20T08:15:01;100732.13;;;4.31;100.00
4830;BME280;2429;52.586;14.322;2023-12-20T08:20:07;100719.91;;;4.34;100.00
4830;BME280;2429;52.586;14.322;2023-12-20T08:25:11;100725.88;;;4.38;100.00
4830;BME280;2429;52.586;14.322;2023-12-20T08:30:16;100711.94;;;4.42;100.00
4830;BME280;2429;52.586;14.322;2023-12-20T08:35:23;100706.47;;;4.51;100.00
4830;BME280;2429;52.586;14.322;2023-12-20T08:40:26;100717.69;;;4.52;100.00
4830;BME280;2429;52.586;14.322;2023-12-20T08:45:31;100702.81;;;4.58;100.00
4830;BME280;2429;52.586;14.322;2023-12-20T08:50:34;100700.91;;;4.64;100.00
4830;BME280;2429;52.586;14.322;2023-12-20T08:55:39;100692.44;;;4.58;100.00
4830;BME280;2429;52.586;14.322;2023-12-20T09:00:44;100693.19;;;4.62;100.00
4830;BME280;2429;52.586;14.322;2023-12-20T09:05:48;100698.38;;;4.62;100.00
4830;BME280;2429;52.586;14.322;2023-12-20T09:10:52;100700.63;;;4.73;100.00
4830;BME280;2429;52.586;14.322;2023-12-20T09:15:57;100698.09;;;4.71;100.00
4830;BME280;2429;52.586;14.322;2023-12-20T09:21:01;100693.66;;;5.03;100.00
4830;BME280;2429;52.586;14.322;2023-12-20T09:26:05;100680.91;;;5.49;100.00
4830;BME280;2429;52.586;14.322;2023-12-20T09:31:10;100682.31;;;5.33;100.00
4830;BME280;2429;52.586;14.322;2023-12-20T09:36:14;100677.13;;;5.33;100.00
4830;BME280;2429;52.586;14.322;2023-12-20T09:41:18;100676.00;;;5.40;100.00
4830;BME280;2429;52.586;14.322;2023-12-20T09:46:24;100665.47;;;5.44;100.00
4830;BME280;2429;52.586;14.322;2023-12-20T09:51:32;100665.16;;;5.79;100.00
4830;BME280;2429;52.586;14.322;2023-12-20T09:56:37;100658.16;;;5.81;100.00
4830;BME280;2429;52.586;14.322;2023-12-20T10:01:42;100646.06;;;5.55;100.00
4830;BME280;2429;52.586;14.322;2023-12-20T10:06:46;100641.97;;;5.47;100.00
4830;BME280;2429;52.586;14.322;2023-12-20T10:11:54;100629.13;;;5.43;100.00
4830;BME280;2429;52.586;14.322;2023-12-20T10:17:03;100632.34;;;5.51;100.00
4830;BME280;2429;52.586;14.322;2023-12-20T10:22:08;100630.91;;;5.42;100.00
4830;BME280;2429;52.586;14.322;2023-12-20T10:27:11;100623.31;;;5.36;100.00
4830;BME280;2429;52.586;14.322;2023-12-20T10:32:26;100613.53;;;5.43;100.00
4830;BME280;2429;52.586;14.322;2023-12-20T10:37:30;100605.69;;;5.44;100.00
4830;BME280;2429;52.586;14.322;2023-12-20T10:42:35;100599.13;;;5.83;100.00
4830;BME280;2429;52.586;14.322;2023-12-20T10:47:41;100578.78;;;5.94;100.00
4830;BME280;2429;52.586;14.322;2023-12-20T10:52:47;100586.59;;;5.71;100.00
4830;BME280;2429;52.586;14.322;2023-12-20T10:57:50;100585.94;;;5.64;100.00
4830;BME280;2429;52.586;14.322;2023-12-20T11:02:59;100562.59;;;5.62;100.00
4830;BME280;2429;52.586;14.322;2023-12-20T11:08:08;100548.06;;;5.58;100.00
4830;BME280;2429;52.586;14.322;2023-12-20T11:13:23;100531.31;;;5.65;100.00
4830;BME280;2429;52.586;14.322;2023-12-20T11:18:33;100537.13;;;5.96;100.00
4830;BME280;2429;52.586;14.322;2023-12-20T11:23:37;100517.69;;;5.82;100.00
4830;BME280;2429;52.586;14.322;2023-12-20T11:28:41;100512.22;;;5.67;100.00
4830;BME280;2429;52.586;14.322;2023-12-20T11:33:46;100504.91;;;6.00;100.00
4830;BME280;2429;52.586;14.322;2023-12-20T11:38:55;100506.47;;;6.04;100.00
4830;BME280;2429;52.586;14.322;2023-12-20T11:44:00;100512.75;;;5.98;100.00
4830;BME280;2429;52.586;14.322;2023-12-20T11:49:06;100481.75;;;5.92;100.00
4830;BME280;2429;52.586;14.322;2023-12-20T11:54:10;100471.31;;;5.94;100.00
4830;BME280;2429;52.586;14.322;2023-12-20T11:59:14;100469.56;;;5.94;100.00
4830;BME280;2429;52.586;14.322;2023-12-20T12:04:26;100439.28;;;6.15;100.00
4830;BME280;2429;52.586;14.322;2023-12-20T12:09:30;100439.75;;;6.25;100.00
4830;BME280;2429;52.586;14.322;2023-12-20T12:14:34;100422.41;;;6.04;100.00
4830;BME280;2429;52.586;14.322;2023-12-20T12:19:41;100403.09;;;5.87;100.00
4830;BME280;2429;52.586;14.322;2023-12-20T12:24:46;100394.69;;;5.80;100.00
4830;BME280;2429;52.586;14.322;2023-12-20T12:30:03;100376.72;;;5.96;100.00
4830;BME280;2429;52.586;14.322;2023-12-20T12:35:11;100366.97;;;6.03;100.00
4830;BME280;2429;52.586;14.322;2023-12-20T12:40:15;100362.28;;;6.11;100.00
4830;BME280;2429;52.586;14.322;2023-12-20T12:45:19;100351.59;;;5.75;100.00
4830;BME280;2429;52.586;14.322;2023-12-20T12:50:24;100333.50;;;5.72;100.00
4830;BME280;2429;52.586;14.322;2023-12-20T12:55:30;100326.19;;;5.59;100.00
4830;BME280;2429;52.586;14.322;2023-12-20T13:00:34;100338.72;;;5.50;100.00
4830;BME280;2429;52.586;14.322;2023-12-20T13:05:39;100323.53;;;5.39;100.00
4830;BME280;2429;52.586;14.322;2023-12-20T13:10:47;100325.53;;;5.32;100.00
4830;BME280;2429;52.586;14.322;2023-12-20T13:15:50;100321.06;;;5.36;100.00
4830;BME280;2429;52.586;14.322;2023-12-20T13:20:58;100329.22;;;5.26;100.00
4830;BME280;2429;52.586;14.322;2023-12-20T13:26:02;100335.91;;;5.10;100.00
4830;BME280;2429;52.586;14.322;2023-12-20T13:31:06;100329.13;;;5.06;100.00
4830;BME280;2429;52.586;14.322;2023-12-20T13:36:12;100328.53;;;4.99;100.00
4830;BME280;2429;52.586;14.322;2023-12-20T13:41:15;100324.03;;;5.03;100.00
4830;BME280;2429;52.586;14.322;2023-12-20T13:46:19;100326.09;;;4.94;100.00
4830;BME280;2429;52.586;14.322;2023-12-20T13:51:24;100340.91;;;4.91;100.00
4830;BME280;2429;52.586;14.322;2023-12-20T13:56:27;100382.03;;;4.80;100.00
4830;BME280;2429;52.586;14.322;2023-12-20T14:01:31;100430.69;;;4.21;100.00
4830;BME280;2429;52.586;14.322;2023-12-20T14:06:36;100409.44;;;3.55;100.00
4830;BME280;2429;52.586;14.322;2023-12-20T14:11:41;100351.06;;;3.43;100.00
4830;BME280;2429;52.586;14.322;2023-12-20T14:16:45;100334.22;;;3.58;100.00
4830;BME280;2429;52.586;14.322;2023-12-20T14:21:50;100362.81;;;3.55;100.00
4830;BME280;2429;52.586;14.322;2023-12-20T14:26:54;100371.50;;;3.52;100.00
4830;BME280;2429;52.586;14.322;2023-12-20T14:31:57;100370.53;;;3.56;100.00
4830;BME280;2429;52.586;14.322;2023-12-20T14:37:04;100361.25;;;3.49;100.00
4830;BME280;2429;52.586;14.322;2023-12-20T14:42:09;100377.31;;;3.60;100.00
4830;BME280;2429;52.586;14.322;2023-12-20T14:47:15;100376.16;;;3.70;100.00
4830;BME280;2429;52.586;14.322;2023-12-20T14:52:20;100381.63;;;3.60;100.00
4830;BME280;2429;52.586;14.322;2023-12-20T14:57:25;100389.59;;;3.53;100.00
4830;BME280;2429;52.586;14.322;2023-12-20T15:02:29;100396.78;;;3.45;100.00
4830;BME280;2429;52.586;14.322;2023-12-20T15:07:35;100401.22;;;3.40;100.00
4830;BME280;2429;52.586;14.322;2023-12-20T15:12:39;100415.13;;;3.38;100.00
4830;BME280;2429;52.586;14.322;2023-12-20T15:17:42;100420.28;;;3.39;100.00
4830;BME280;2429;52.586;14.322;2023-12-20T15:22:48;100431.13;;;3.50;100.00
4830;BME280;2429;52.586;14.322;2023-12-20T15:27:51;100453.19;;;3.64;100.00
4830;BME280;2429;52.586;14.322;2023-12-20T15:32:55;100488.34;;;3.43;100.00
4830;BME280;2429;52.586;14.322;2023-12-20T15:38:01;100452.34;;;2.71;100.00
4830;BME280;2429;52.586;14.322;2023-12-20T15:43:07;100457.09;;;2.53;100.00
4830;BME280;2429;52.586;14.322;2023-12-20T15:48:10;100440.63;;;2.57;100.00
4830;BME280;2429;52.586;14.322;2023-12-20T15:53:21;100447.59;;;2.88;100.00
4830;BME280;2429;52.586;14.322;2023-12-20T15:58:24;100445.03;;;2.85;100.00
4830;BME280;2429;52.586;14.322;2023-12-20T16:03:28;100450.13;;;2.90;100.00
4830;BME280;2429;52.586;14.322;2023-12-20T16:08:41;100445.78;;;2.90;100.00
4830;BME280;2429;52.586;14.322;2023-12-20T16:13:44;100449.13;;;2.94;100.00
4830;BME280;2429;52.586;14.322;2023-12-20T16:18:48;100444.09;;;2.89;100.00
4830;BME280;2429;52.586;14.322;2023-12-20T16:23:53;100445.97;;;3.15;100.00
4830;BME280;2429;52.586;14.322;2023-12-20T16:28:58;100455.88;;;2.99;100.00
4830;BME280;2429;52.586;14.322;2023-12-20T16:34:02;100459.47;;;2.94;100.00
4830;BME280;2429;52.586;14.322;2023-12-20T16:39:10;100476.00;;;2.90;100.00
4830;BME280;2429;52.586;14.322;2023-12-20T16:44:15;100467.88;;;3.04;100.00
4830;BME280;2429;52.586;14.322;2023-12-20T16:49:18;100474.53;;;3.12;100.00
4830;BME280;2429;52.586;14.322;2023-12-20T16:54:23;100468.56;;;3.09;100.00
4830;BME280;2429;52.586;14.322;2023-12-20T16:59:27;100472.03;;;3.09;100.00
4830;BME280;2429;52.586;14.322;2023-12-20T17:04:30;100459.75;;;3.16;100.00
4830;BME280;2429;52.586;14.322;2023-12-20T17:09:36;100446.84;;;3.14;100.00
4830;BME280;2429;52.586;14.322;2023-12-20T17:14:41;100460.56;;;3.18;100.00
4830;BME280;2429;52.586;14.322;2023-12-20T17:19:44;100460.81;;;3.09;100.00
4830;BME280;2429;52.586;14.322;2023-12-20T17:24:49;100465.97;;;3.09;100.00
4830;BME280;2429;52.586;14.322;2023-12-20T17:29:53;100473.75;;;3.09;100.00
4830;BME280;2429;52.586;14.322;2023-12-20T17:34:57;100481.34;;;3.15;100.00
4830;BME280;2429;52.586;14.322;2023-12-20T17:40:03;100483.00;;;3.17;100.00
4830;BME280;2429;52.586;14.322;2023-12-20T17:45:07;100485.72;;;3.13;100.00
4830;BME280;2429;52.586;14.322;2023-12-20T17:50:11;100487.44;;;3.14;100.00
4830;BME280;2429;52.586;14.322;2023-12-20T17:55:16;100483.28;;;3.08;100.00
4830;BME280;2429;52.586;14.322;2023-12-20T18:00:24;100497.75;;;3.15;100.00
4830;BME280;2429;52.586;14.322;2023-12-20T18:05:29;100494.50;;;3.07;100.00
4830;BME280;2429;52.586;14.322;2023-12-20T18:10:34;100504.78;;;3.10;100.00
4830;BME280;2429;52.586;14.322;2023-12-20T18:15:38;100498.53;;;3.17;100.00
4830;BME280;2429;52.586;14.322;2023-12-20T18:20:43;100508.09;;;3.15;100.00
4830;BME280;2429;52.586;14.322;2023-12-20T18:25:48;100509.66;;;3.23;100.00
4830;BME280;2429;52.586;14.322;2023-12-20T18:30:56;100510.56;;;3.20;100.00
4830;BME280;2429;52.586;14.322;2023-12-20T18:36:00;100509.50;;;3.27;100.00
4830;BME280;2429;52.586;14.322;2023-12-20T18:41:05;100518.22;;;3.25;100.00
4830;BME280;2429;52.586;14.322;2023-12-20T18:46:08;100518.22;;;3.25;100.00
4830;BME280;2429;52.586;14.322;2023-12-20T18:51:12;100513.47;;;3.41;100.00
4830;BME280;2429;52.586;14.322;2023-12-20T18:56:18;100512.50;;;3.43;100.00
4830;BME280;2429;52.586;14.322;2023-12-20T19:01:22;100496.91;;;3.46;100.00
4830;BME280;2429;52.586;14.322;2023-12-20T19:06:26;100486.22;;;3.57;100.00
4830;BME280;2429;52.586;14.322;2023-12-20T19:11:31;100482.53;;;3.66;100.00
4830;BME280;2429;52.586;14.322;2023-12-20T19:16:35;100481.56;;;3.68;100.00
4830;BME280;2429;52.586;14.322;2023-12-20T19:21:39;100463.59;;;3.62;100.00
4830;BME280;2429;52.586;14.322;2023-12-20T19:26:45;100470.41;;;3.66;100.00
4830;BME280;2429;52.586;14.322;2023-12-20T19:31:49;100456.44;;;3.72;100.00
4830;BME280;2429;52.586;14.322;2023-12-20T19:36:55;100455.41;;;3.76;100.00
4830;BME280;2429;52.586;14.322;2023-12-20T19:42:00;100451.84;;;3.80;100.00
4830;BME280;2429;52.586;14.322;2023-12-20T19:47:04;100458.78;;;3.80;100.00
4830;BME280;2429;52.586;14.322;2023-12-20T19:52:08;100457.91;;;3.81;100.00
4830;BME280;2429;52.586;14.322;2023-12-20T19:57:13;100462.34;;;3.76;100.00
4830;BME280;2429;52.586;14.322;2023-12-20T20:02:17;100459.81;;;3.74;100.00
4830;BME280;2429;52.586;14.322;2023-12-20T20:07:21;100442.34;;;3.81;100.00
4830;BME280;2429;52.586;14.322;2023-12-20T20:12:27;100449.34;;;3.77;100.00
4830;BME280;2429;52.586;14.322;2023-12-20T20:17:31;100444.66;;;3.90;100.00
4830;BME280;2429;52.586;14.322;2023-12-20T20:22:35;100437.47;;;3.70;100.00
4830;BME280;2429;52.586;14.322;2023-12-20T20:27:40;100428.91;;;3.68;100.00
4830;BME280;2429;52.586;14.322;2023-12-20T20:32:44;100426.06;;;3.47;100.00
4830;BME280;2429;52.586;14.322;2023-12-20T20:37:53;100423.94;;;3.32;100.00
4830;BME280;2429;52.586;14.322;2023-12-20T20:42:59;100427.44;;;3.29;100.00
4830;BME280;2429;52.586;14.322;2023-12-20T20:48:04;100423.56;;;3.44;100.00
4830;BME280;2429;52.586;14.322;2023-12-20T20:53:26;100414.75;;;3.50;100.00
4830;BME280;2429;52.586;14.322;2023-12-20T20:58:31;100405.78;;;3.62;100.00
4830;BME280;2429;52.586;14.322;2023-12-20T21:03:36;100407.50;;;3.61;100.00
4830;BME280;2429;52.586;14.322;2023-12-20T21:08:40;100393.94;;;3.53;100.00
4830;BME280;2429;52.586;14.322;2023-12-20T21:13:45;100386.88;;;3.58;100.00
4830;BME280;2429;52.586;14.322;2023-12-20T21:18:50;100383.69;;;3.50;100.00
4830;BME280;2429;52.586;14.322;2023-12-20T21:23:53;100372.56;;;3.46;100.00
4830;BME280;2429;52.586;14.322;2023-12-20T21:29:00;100371.75;;;3.44;100.00
4830;BME280;2429;52.586;14.322;2023-12-20T21:34:04;100363.16;;;3.44;100.00
4830;BME280;2429;52.586;14.322;2023-12-20T21:39:09;100367.34;;;3.48;100.00
4830;BME280;2429;52.586;14.322;2023-12-20T21:44:15;100355.09;;;3.53;100.00
4830;BME280;2429;52.586;14.322;2023-12-20T21:49:19;100343.78;;;3.56;100.00
4830;BME280;2429;52.586;14.322;2023-12-20T21:54:23;100337.53;;;3.63;100.00
4830;BME280;2429;52.586;14.322;2023-12-20T21:59:28;100336.47;;;3.68;100.00
4830;BME280;2429;52.586;14.322;2023-12-20T22:04:32;100336.41;;;3.70;100.00
4830;BME280;2429;52.586;14.322;2023-12-20T22:09:36;100331.19;;;3.71;100.00
4830;BME280;2429;52.586;14.322;2023-12-20T22:14:41;100315.78;;;3.67;100.00
4830;BME280;2429;52.586;14.322;2023-12-20T22:19:45;100312.31;;;3.68;100.00
4830;BME280;2429;52.586;14.322;2023-12-20T22:24:49;100302.63;;;3.73;100.00
4830;BME280;2429;52.586;14.322;2023-12-20T22:29:54;100299.97;;;3.75;100.00
4830;BME280;2429;52.586;14.322;2023-12-20T22:34:58;100294.22;;;3.66;100.00
4830;BME280;2429;52.586;14.322;2023-12-20T22:40:02;100293.66;;;3.57;100.00
4830;BME280;2429;52.586;14.322;2023-12-20T22:45:09;100285.50;;;3.69;100.00
4830;BME280;2429;52.586;14.322;2023-12-20T22:50:12;100269.69;;;3.50;100.00
4830;BME280;2429;52.586;14.322;2023-12-20T22:55:16;100274.94;;;3.48;100.00
4830;BME280;2429;52.586;14.322;2023-12-20T23:00:22;100271.56;;;3.46;100.00
4830;BME280;2429;52.586;14.322;2023-12-20T23:05:27;100262.09;;;3.45;100.00
4830;BME280;2429;52.586;14.322;2023-12-20T23:10:31;100257.09;;;3.39;100.00
4830;BME280;2429;52.586;14.322;2023-12-20T23:15:38;100239.72;;;3.43;100.00
4830;BME280;2429;52.586;14.322;2023-12-20T23:20:41;100223.06;;;3.50;100.00
4830;BME280;2429;52.586;14.322;2023-12-20T23:25:45;100217.19;;;3.45;100.00
4830;BME280;2429;52.586;14.322;2023-12-20T23:30:50;100206.53;;;3.27;100.00
4830;BME280;2429;52.586;14.322;2023-12-20T23:35:54;100194.13;;;3.37;100.00
4830;BME280;2429;52.586;14.322;2023-12-20T23:40:57;100178.84;;;3.29;100.00
4830;BME280;2429;52.586;14.322;2023-12-20T23:46:03;100158.09;;;3.31;100.00
4830;BME280;2429;52.586;14.322;2023-12-20T23:51:07;100144.41;;;3.27;100.00
4830;BME280;2429;52.586;14.322;2023-12-20T23:56:11;100133.38;;;3.21;100.00
